sensor_id;sensor_type;location;lat;lon;timestamp;pressure;altitude;pressure_sealevel;temperature;humidity
40920;BME280;26652;50.280;19.026;2022-08-14T00:01:16;98079.50;;;19.89;100.00
40920;BME280;26652;50.280;19.026;2022-08-14T00:03:40;98059.25;;;19.76;100.00
40920;BME280;26652;50.280;19.026;2022-08-14T00:06:18;98075.31;;;19.83;100.00
40920;BME280;26652;50.280;19.026;2022-08-14T00:08:32;98074.09;;;19.91;100.00
40920;BME280;26652;50.280;19.026;2022-08-14T00:10:51;98066.28;;;19.86;100.00
40920;BME280;26652;50.280;19.026;2022-08-14T00:13:11;98063.91;;;19.74;100.00
40920;BME280;26652;50.280;19.026;2022-08-14T00:15:35;98063.38;;;19.77;100.00
40920;BME280;26652;50.280;19.026;2022-08-14T00:17:55;98069.06;;;19.74;100.00
40920;BME280;26652;50.280;19.026;2022-08-14T00:20:22;98064.44;;;19.81;100.00
40920;BME280;26652;50.280;19.026;2022-08-14T00:22:42;98058.75;;;19.79;100.00
40920;BME280;26652;50.280;19.026;2022-08-14T00:25:06;98056.69;;;19.81;100.00
40920;BME280;26652;50.280;19.026;2022-08-14T00:27:26;98053.38;;;19.86;100.00
40920;BME280;26652;50.280;19.026;2022-08-14T00:29:42;98052.34;;;19.87;100.00
40920;BME280;26652;50.280;19.026;2022-08-14T00:32:01;98055.75;;;19.92;100.00
40920;BME280;26652;50.280;19.026;2022-08-14T00:34:20;98044.06;;;19.85;100.00
40920;BME280;26652;50.280;19.026;2022-08-14T00:37:01;98043.88;;;19.91;100.00
40920;BME280;26652;50.280;19.026;2022-08-14T00:39:19;98027.25;;;19.82;100.00
40920;BME280;26652;50.280;19.026;2022-08-14T00:41:37;98030.34;;;19.79;100.00
40920;BME280;26652;50.280;19.026;2022-08-14T00:44:06;98039.97;;;19.89;100.00
40920;BME280;26652;50.280;19.026;2022-08-14T00:46:36;98035.28;;;19.86;100.00
40920;BME280;26652;50.280;19.026;2022-08-14T00:48:58;98033.16;;;19.78;100.00
40920;BME280;26652;50.280;19.026;2022-08-14T00:51:31;98030.09;;;19.81;100.00
40920;BME280;26652;50.280;19.026;2022-08-14T00:53:53;98019.50;;;19.82;100.00
40920;BME280;26652;50.280;19.026;2022-08-14T00:56:16;98024.91;;;19.81;100.00
40920;BME280;26652;50.280;19.026;2022-08-14T00:58:38;98017.41;;;19.74;100.00
40920;BME280;26652;50.280;19.026;2022-08-14T01:01:07;98016.09;;;19.77;100.00
40920;BME280;26652;50.280;19.026;2022-08-14T01:03:28;98014.06;;;19.74;100.00
40920;BME280;26652;50.280;19.026;2022-08-14T01:05:50;98012.00;;;19.76;100.00
40920;BME280;26652;50.280;19.026;2022-08-14T01:08:28;98008.34;;;19.72;100.00
40920;BME280;26652;50.280;19.026;2022-08-14T01:10:39;98015.59;;;19.75;100.00
40920;BME280;26652;50.280;19.026;2022-08-14T01:12:59;98010.06;;;19.61;100.00
40920;BME280;26652;50.280;19.026;2022-08-14T01:15:09;98010.13;;;19.66;100.00
40920;BME280;26652;50.280;19.026;2022-08-14T01:17:23;98023.31;;;19.70;100.00
40920;BME280;26652;50.280;19.026;2022-08-14T01:19:58;98014.78;;;19.69;100.00
40920;BME280;26652;50.280;19.026;2022-08-14T01:22:46;98011.13;;;19.65;100.00
40920;BME280;26652;50.280;19.026;2022-08-14T01:25:09;98012.94;;;19.65;100.00
40920;BME280;26652;50.280;19.026;2022-08-14T01:27:36;98011.37;;;19.64;100.00
40920;BME280;26652;50.280;19.026;2022-08-14T01:30:00;98010.31;;;19.59;100.00
40920;BME280;26652;50.280;19.026;2022-08-14T01:32:28;98011.22;;;19.48;100.00
40920;BME280;26652;50.280;19.026;2022-08-14T01:34:52;98007.88;;;19.48;100.00
40920;BME280;26652;50.280;19.026;2022-08-14T01:37:16;98006.06;;;19.48;100.00
40920;BME280;26652;50.280;19.026;2022-08-14T01:39:40;98008.62;;;19.48;100.00
40920;BME280;26652;50.280;19.026;2022-08-14T01:42:03;98003.47;;;19.48;100.00
40920;BME280;26652;50.280;19.026;2022-08-14T01:44:25;98013.56;;;19.50;100.00
40920;BME280;26652;50.280;19.026;2022-08-14T01:46:51;98006.38;;;19.52;100.00
40920;BME280;26652;50.280;19.026;2022-08-14T01:49:23;98006.84;;;19.49;100.00
40920;BME280;26652;50.280;19.026;2022-08-14T01:52:02;98016.22;;;19.55;100.00
40920;BME280;26652;50.280;19.026;2022-08-14T01:54:25;98001.25;;;19.57;100.00
40920;BME280;26652;50.280;19.026;2022-08-14T01:57:02;98001.53;;;19.61;100.00
40920;BME280;26652;50.280;19.026;2022-08-14T01:59:25;97999.75;;;19.61;100.00
40920;BME280;26652;50.280;19.026;2022-08-14T02:01:37;98004.63;;;19.57;100.00
40920;BME280;26652;50.280;19.026;2022-08-14T02:04:11;98003.56;;;19.53;100.00
40920;BME280;26652;50.280;19.026;2022-08-14T02:06:40;98005.59;;;19.51;100.00
40920;BME280;26652;50.280;19.026;2022-08-14T02:09:08;98005.94;;;19.60;100.00
40920;BME280;26652;50.280;19.026;2022-08-14T02:11:30;98001.78;;;19.59;100.00
40920;BME280;26652;50.280;19.026;2022-08-14T02:14:05;97987.97;;;19.48;100.00
40920;BME280;26652;50.280;19.026;2022-08-14T02:16:39;98000.19;;;19.53;100.00
40920;BME280;26652;50.280;19.026;2022-08-14T02:18:54;98011.09;;;19.60;100.00
40920;BME280;26652;50.280;19.026;2022-08-14T02:21:05;98005.16;;;19.59;100.00
40920;BME280;26652;50.280;19.026;2022-08-14T02:23:36;98013.09;;;19.53;100.00
40920;BME280;26652;50.280;19.026;2022-08-14T02:26:00;98009.78;;;19.57;100.00
40920;BME280;26652;50.280;19.026;2022-08-14T02:28:25;98006.66;;;19.55;100.00
40920;BME280;26652;50.280;19.026;2022-08-14T02:30:58;97998.38;;;19.53;100.00
40920;BME280;26652;50.280;19.026;2022-08-14T02:33:11;97993.69;;;19.50;100.00
40920;BME280;26652;50.280;19.026;2022-08-14T02:35:23;97993.41;;;19.47;100.00
40920;BME280;26652;50.280;19.026;2022-08-14T02:37:47;97995.69;;;19.43;100.00
40920;BME280;26652;50.280;19.026;2022-08-14T02:40:07;97994.88;;;19.38;100.00
40920;BME280;26652;50.280;19.026;2022-08-14T02:42:29;97994.09;;;19.37;100.00
40920;BME280;26652;50.280;19.026;2022-08-14T02:44:51;97992.03;;;19.39;100.00
40920;BME280;26652;50.280;19.026;2022-08-14T02:47:14;97980.16;;;19.38;100.00
40920;BME280;26652;50.280;19.026;2022-08-14T02:49:47;97984.53;;;19.38;100.00
40920;BME280;26652;50.280;19.026;2022-08-14T02:52:08;97989.13;;;19.31;100.00
40920;BME280;26652;50.280;19.026;2022-08-14T02:54:35;97987.81;;;19.28;100.00
40920;BME280;26652;50.280;19.026;2022-08-14T02:56:58;97983.97;;;19.31;100.00
40920;BME280;26652;50.280;19.026;2022-08-14T02:59:22;97984.25;;;19.34;100.00
40920;BME280;26652;50.280;19.026;2022-08-14T03:01:42;97988.63;;;19.34;100.00
40920;BME280;26652;50.280;19.026;2022-08-14T03:04:07;97987.03;;;19.27;100.00
40920;BME280;26652;50.280;19.026;2022-08-14T03:06:30;97984.62;;;19.21;100.00
40920;BME280;26652;50.280;19.026;2022-08-14T03:08:56;97982.25;;;19.14;100.00
40920;BME280;26652;50.280;19.026;2022-08-14T03:11:25;97982.25;;;19.14;100.00
40920;BME280;26652;50.280;19.026;2022-08-14T03:13:51;97979.97;;;19.18;100.00
40920;BME280;26652;50.280;19.026;2022-08-14T03:16:12;97981.28;;;19.20;100.00
40920;BME280;26652;50.280;19.026;2022-08-14T03:18:32;97983.38;;;19.23;100.00
40920;BME280;26652;50.280;19.026;2022-08-14T03:21:03;97975.59;;;19.18;100.00
40920;BME280;26652;50.280;19.026;2022-08-14T03:23:35;97978.34;;;19.12;100.00
40920;BME280;26652;50.280;19.026;2022-08-14T03:25:44;97987.13;;;19.11;100.00
40920;BME280;26652;50.280;19.026;2022-08-14T03:27:53;97976.25;;;19.09;100.00
40920;BME280;26652;50.280;19.026;2022-08-14T03:30:20;97985.62;;;19.15;100.00
40920;BME280;26652;50.280;19.026;2022-08-14T03:32:43;97979.66;;;19.14;100.00
40920;BME280;26652;50.280;19.026;2022-08-14T03:35:22;97978.84;;;19.09;100.00
40920;BME280;26652;50.280;19.026;2022-08-14T03:37:44;97973.72;;;19.14;100.00
40920;BME280;26652;50.280;19.026;2022-08-14T03:40:10;97980.44;;;19.15;100.00
40920;BME280;26652;50.280;19.026;2022-08-14T03:42:31;97977.91;;;19.20;100.00
40920;BME280;26652;50.280;19.026;2022-08-14T03:44:51;97978.50;;;19.27;100.00
40920;BME280;26652;50.280;19.026;2022-08-14T03:47:23;97967.69;;;19.30;100.00
40920;BME280;26652;50.280;19.026;2022-08-14T03:49:52;97971.59;;;19.33;100.00
40920;BME280;26652;50.280;19.026;2022-08-14T03:52:24;97977.56;;;19.38;100.00
40920;BME280;26652;50.280;19.026;2022-08-14T03:54:56;97976.53;;;19.39;100.00
40920;BME280;26652;50.280;19.026;2022-08-14T03:57:20;97968.22;;;19.32;100.00
40920;BME280;26652;50.280;19.026;2022-08-14T03:59:44;97979.19;;;19.44;100.00
40920;BME280;26652;50.280;19.026;2022-08-14T04:02:13;97971.72;;;19.48;100.00
40920;BME280;26652;50.280;19.026;2022-08-14T04:04:41;97959.84;;;19.47;100.00
40920;BME280;26652;50.280;19.026;2022-08-14T04:07:20;97972.06;;;19.56;100.00
40920;BME280;26652;50.280;19.026;2022-08-14T04:09:52;97970.75;;;19.54;100.00
40920;BME280;26652;50.280;19.026;2022-08-14T04:12:21;97963.31;;;19.57;100.00
40920;BME280;26652;50.280;19.026;2022-08-14T04:14:53;97966.13;;;19.56;100.00
40920;BME280;26652;50.280;19.026;2022-08-14T04:17:22;97977.31;;;19.67;100.00
40920;BME280;26652;50.280;19.026;2022-08-14T04:19:49;97972.69;;;19.69;100.00
40920;BME280;26652;50.280;19.026;2022-08-14T04:22:12;97976.03;;;19.69;100.00
40920;BME280;26652;50.280;19.026;2022-08-14T04:24:37;97967.56;;;19.74;100.00
40920;BME280;26652;50.280;19.026;2022-08-14T04:26:57;97972.72;;;19.74;100.00
40920;BME280;26652;50.280;19.026;2022-08-14T04:29:23;97975.03;;;19.70;100.00
40920;BME280;26652;50.280;19.026;2022-08-14T04:31:53;97972.66;;;19.64;100.00
40920;BME280;26652;50.280;19.026;2022-08-14T04:34:21;97973.22;;;19.71;100.00
40920;BME280;26652;50.280;19.026;2022-08-14T04:36:52;97973.75;;;19.73;100.00
40920;BME280;26652;50.280;19.026;2022-08-14T04:39:22;97970.59;;;19.66;100.00
40920;BME280;26652;50.280;19.026;2022-08-14T04:41:53;97963.84;;;19.59;100.00
40920;BME280;26652;50.280;19.026;2022-08-14T04:44:30;97967.47;;;19.64;100.00
40920;BME280;26652;50.280;19.026;2022-08-14T04:46:43;97961.53;;;19.63;100.00
40920;BME280;26652;50.280;19.026;2022-08-14T04:49:16;97955.09;;;19.66;100.00
40920;BME280;26652;50.280;19.026;2022-08-14T04:51:31;97965.97;;;19.68;100.00
40920;BME280;26652;50.280;19.026;2022-08-14T04:53:45;97962.34;;;19.69;100.00
40920;BME280;26652;50.280;19.026;2022-08-14T04:55:56;97968.78;;;19.66;100.00
40920;BME280;26652;50.280;19.026;2022-08-14T04:58:32;97964.38;;;19.62;100.00
40920;BME280;26652;50.280;19.026;2022-08-14T05:00:42;97964.09;;;19.58;100.00
40920;BME280;26652;50.280;19.026;2022-08-14T05:02:51;97961.78;;;19.62;100.00
40920;BME280;26652;50.280;19.026;2022-08-14T05:05:14;97959.16;;;19.56;100.00
40920;BME280;26652;50.280;19.026;2022-08-14T05:07:43;97959.34;;;19.50;100.00
40920;BME280;26652;50.280;19.026;2022-08-14T05:10:05;97956.22;;;19.48;100.00
40920;BME280;26652;50.280;19.026;2022-08-14T05:12:29;97955.75;;;19.51;100.00
40920;BME280;26652;50.280;19.026;2022-08-14T05:14:51;97952.34;;;19.45;100.00
40920;BME280;26652;50.280;19.026;2022-08-14T05:17:12;97955.22;;;19.49;100.00
40920;BME280;26652;50.280;19.026;2022-08-14T05:19:35;97949.78;;;19.50;100.00
40920;BME280;26652;50.280;19.026;2022-08-14T05:21:58;97952.09;;;19.47;100.00
40920;BME280;26652;50.280;19.026;2022-08-14T05:24:22;97945.38;;;19.46;100.00
40920;BME280;26652;50.280;19.026;2022-08-14T05:26:45;97941.75;;;19.47;100.00
40920;BME280;26652;50.280;19.026;2022-08-14T05:29:12;97942.63;;;19.52;100.00
40920;BME280;26652;50.280;19.026;2022-08-14T05:31:35;97952.69;;;19.54;100.00
40920;BME280;26652;50.280;19.026;2022-08-14T05:34:08;97950.66;;;19.56;100.00
40920;BME280;26652;50.280;19.026;2022-08-14T05:36:20;97942.16;;;19.61;100.00
40920;BME280;26652;50.280;19.026;2022-08-14T05:38:41;97952.53;;;19.66;100.00
40920;BME280;26652;50.280;19.026;2022-08-14T05:41:15;97954.84;;;19.67;100.00
40920;BME280;26652;50.280;19.026;2022-08-14T05:43:29;97948.09;;;19.61;100.00
40920;BME280;26652;50.280;19.026;2022-08-14T05:45:41;97948.81;;;19.51;100.00
40920;BME280;26652;50.280;19.026;2022-08-14T05:48:04;97950.66;;;19.56;100.00
40920;BME280;26652;50.280;19.026;2022-08-14T05:50:33;97946.50;;;19.55;100.00
40920;BME280;26652;50.280;19.026;2022-08-14T05:52:47;97955.06;;;19.61;100.00
40920;BME280;26652;50.280;19.026;2022-08-14T05:54:58;97947.81;;;19.57;100.00
40920;BME280;26652;50.280;19.026;2022-08-14T05:57:26;97952.50;;;19.61;100.00
40920;BME280;26652;50.280;19.026;2022-08-14T06:00:06;97956.31;;;19.53;100.00
40920;BME280;26652;50.280;19.026;2022-08-14T06:02:29;97950.03;;;19.49;100.00
40920;BME280;26652;50.280;19.026;2022-08-14T06:04:58;97946.44;;;19.50;100.00
40920;BME280;26652;50.280;19.026;2022-08-14T06:07:23;97948.47;;;19.48;100.00
40920;BME280;26652;50.280;19.026;2022-08-14T06:10:06;97942.66;;;19.57;100.00
40920;BME280;26652;50.280;19.026;2022-08-14T06:12:30;97938.50;;;19.56;100.00
40920;BME280;26652;50.280;19.026;2022-08-14T06:14:56;97942.44;;;19.64;100.00
40920;BME280;26652;50.280;19.026;2022-08-14T06:17:15;97941.97;;;19.72;100.00
40920;BME280;26652;50.280;19.026;2022-08-14T06:19:34;97934.22;;;19.72;100.00
40920;BME280;26652;50.280;19.026;2022-08-14T06:21:49;97938.44;;;19.88;100.00
40920;BME280;26652;50.280;19.026;2022-08-14T06:24:34;97923.13;;;19.77;100.00
40920;BME280;26652;50.280;19.026;2022-08-14T06:27:06;97929.84;;;19.78;100.00
40920;BME280;26652;50.280;19.026;2022-08-14T06:29:35;97944.41;;;19.94;100.00
40920;BME280;26652;50.280;19.026;2022-08-14T06:31:58;97939.00;;;19.96;100.00
40920;BME280;26652;50.280;19.026;2022-08-14T06:34:32;97946.13;;;19.78;100.00
40920;BME280;26652;50.280;19.026;2022-08-14T06:37:14;97945.69;;;19.91;100.00
40920;BME280;26652;50.280;19.026;2022-08-14T06:39:39;97945.97;;;19.95;100.00
40920;BME280;26652;50.280;19.026;2022-08-14T06:42:04;97937.72;;;19.98;100.00
40920;BME280;26652;50.280;19.026;2022-08-14T06:44:32;97938.38;;;19.78;100.00
40920;BME280;26652;50.280;19.026;2022-08-14T06:46:50;97936.31;;;19.80;100.00
40920;BME280;26652;50.280;19.026;2022-08-14T06:49:08;97938.25;;;20.00;100.00
40920;BME280;26652;50.280;19.026;2022-08-14T06:51:33;97942.09;;;19.92;100.00
40920;BME280;26652;50.280;19.026;2022-08-14T06:54:06;97944.66;;;19.92;100.00
40920;BME280;26652;50.280;19.026;2022-08-14T06:56:40;97943.66;;;19.99;100.00
40920;BME280;26652;50.280;19.026;2022-08-14T06:58:52;97938.84;;;20.12;100.00
40920;BME280;26652;50.280;19.026;2022-08-14T07:01:03;97943.00;;;20.18;100.00
40920;BME280;26652;50.280;19.026;2022-08-14T07:03:29;97944.25;;;20.11;100.00
40920;BME280;26652;50.280;19.026;2022-08-14T07:05:51;97939.06;;;20.06;100.00
40920;BME280;26652;50.280;19.026;2022-08-14T07:08:03;97931.34;;;20.11;100.00
40920;BME280;26652;50.280;19.026;2022-08-14T07:10:27;97938.59;;;20.14;100.00
40920;BME280;26652;50.280;19.026;2022-08-14T07:12:49;97945.63;;;20.23;100.00
40920;BME280;26652;50.280;19.026;2022-08-14T07:15:16;97942.00;;;20.24;100.00
40920;BME280;26652;50.280;19.026;2022-08-14T07:17:49;97939.22;;;20.36;100.00
40920;BME280;26652;50.280;19.026;2022-08-14T07:20:07;97950.50;;;20.20;100.00
40920;BME280;26652;50.280;19.026;2022-08-14T07:22:38;97943.81;;;20.24;100.00
40920;BME280;26652;50.280;19.026;2022-08-14T07:25:01;97950.72;;;20.13;100.00
40920;BME280;26652;50.280;19.026;2022-08-14T07:27:27;97935.00;;;20.20;100.00
40920;BME280;26652;50.280;19.026;2022-08-14T07:29:51;97932.19;;;20.27;100.00
40920;BME280;26652;50.280;19.026;2022-08-14T07:32:14;97940.25;;;20.35;100.00
40920;BME280;26652;50.280;19.026;2022-08-14T07:34:42;97941.06;;;20.41;100.00
40920;BME280;26652;50.280;19.026;2022-08-14T07:37:13;97934.63;;;20.43;100.00
40920;BME280;26652;50.280;19.026;2022-08-14T07:39:29;97928.97;;;20.51;100.00
40920;BME280;26652;50.280;19.026;2022-08-14T07:41:47;97932.31;;;20.52;100.00
40920;BME280;26652;50.280;19.026;2022-08-14T07:44:13;97932.31;;;20.47;100.00
40920;BME280;26652;50.280;19.026;2022-08-14T07:46:52;97933.09;;;20.47;100.00
40920;BME280;26652;50.280;19.026;2022-08-14T07:49:11;97937.38;;;20.32;100.00
40920;BME280;26652;50.280;19.026;2022-08-14T07:51:21;97937.38;;;20.32;100.00
40920;BME280;26652;50.280;19.026;2022-08-14T07:53:45;97935.66;;;20.42;100.00
40920;BME280;26652;50.280;19.026;2022-08-14T07:56:09;97930.78;;;20.56;100.00
40920;BME280;26652;50.280;19.026;2022-08-14T07:58:32;97932.38;;;20.67;100.00
40920;BME280;26652;50.280;19.026;2022-08-14T08:01:06;97944.25;;;20.63;100.00
40920;BME280;26652;50.280;19.026;2022-08-14T08:03:18;97933.84;;;20.48;100.00
40920;BME280;26652;50.280;19.026;2022-08-14T08:05:28;97931.56;;;20.56;100.00
40920;BME280;26652;50.280;19.026;2022-08-14T08:07:47;97937.28;;;20.64;100.00
40920;BME280;26652;50.280;19.026;2022-08-14T08:10:24;97942.22;;;20.70;100.00
40920;BME280;26652;50.280;19.026;2022-08-14T08:13:11;97945.03;;;20.69;100.00
40920;BME280;26652;50.280;19.026;2022-08-14T08:15:20;97930.06;;;20.71;100.00
40920;BME280;26652;50.280;19.026;2022-08-14T08:17:31;97928.00;;;20.73;100.00
40920;BME280;26652;50.280;19.026;2022-08-14T08:19:51;97933.41;;;20.71;100.00
40920;BME280;26652;50.280;19.026;2022-08-14T08:22:14;97936.00;;;20.81;100.00
40920;BME280;26652;50.280;19.026;2022-08-14T08:24:41;97935.75;;;20.83;100.00
40920;BME280;26652;50.280;19.026;2022-08-14T08:27:20;97928.50;;;20.85;100.00
40920;BME280;26652;50.280;19.026;2022-08-14T08:30:01;97930.06;;;20.86;100.00
40920;BME280;26652;50.280;19.026;2022-08-14T08:32:21;97929.53;;;20.84;100.00
40920;BME280;26652;50.280;19.026;2022-08-14T08:34:45;97928.25;;;20.86;100.00
40920;BME280;26652;50.280;19.026;2022-08-14T08:37:05;97911.97;;;20.91;100.00
40920;BME280;26652;50.280;19.026;2022-08-14T08:39:40;97918.69;;;20.97;100.00
40920;BME280;26652;50.280;19.026;2022-08-14T08:42:01;97910.16;;;20.92;100.00
40920;BME280;26652;50.280;19.026;2022-08-14T08:44:29;97918.69;;;21.07;100.00
40920;BME280;26652;50.280;19.026;2022-08-14T08:46:56;97916.38;;;21.21;100.00
40920;BME280;26652;50.280;19.026;2022-08-14T08:49:46;97925.47;;;21.29;100.00
40920;BME280;26652;50.280;19.026;2022-08-14T08:52:04;97918.50;;;21.34;100.00
40920;BME280;26652;50.280;19.026;2022-08-14T08:54:37;97919.28;;;21.30;100.00
40920;BME280;26652;50.280;19.026;2022-08-14T08:57:11;97918.97;;;21.21;100.00
40920;BME280;26652;50.280;19.026;2022-08-14T08:59:29;97918.97;;;21.21;100.00
40920;BME280;26652;50.280;19.026;2022-08-14T09:01:46;97914.81;;;21.10;100.00
40920;BME280;26652;50.280;19.026;2022-08-14T09:04:06;97913.28;;;21.09;100.00
40920;BME280;26652;50.280;19.026;2022-08-14T09:06:31;97915.34;;;21.12;100.00
40920;BME280;26652;50.280;19.026;2022-08-14T09:09:30;97913.56;;;21.28;100.00
40920;BME280;26652;50.280;19.026;2022-08-14T09:11:40;97911.75;;;21.33;100.00
40920;BME280;26652;50.280;19.026;2022-08-14T09:14:07;97909.94;;;21.39;100.00
40920;BME280;26652;50.280;19.026;2022-08-14T09:16:39;97910.22;;;21.27;100.00
40920;BME280;26652;50.280;19.026;2022-08-14T09:18:49;97905.53;;;21.34;100.00
40920;BME280;26652;50.280;19.026;2022-08-14T09:20:58;97907.88;;;21.41;100.00
40920;BME280;26652;50.280;19.026;2022-08-14T09:23:34;97902.16;;;21.49;100.00
40920;BME280;26652;50.280;19.026;2022-08-14T09:25:47;97903.97;;;21.59;100.00
40920;BME280;26652;50.280;19.026;2022-08-14T09:27:56;97914.56;;;21.82;100.00
40920;BME280;26652;50.280;19.026;2022-08-14T09:30:33;97906.97;;;21.96;100.00
40920;BME280;26652;50.280;19.026;2022-08-14T09:43:55;97903.44;;;22.46;100.00
40920;BME280;26652;50.280;19.026;2022-08-14T09:46:19;97888.69;;;22.42;100.00
40920;BME280;26652;50.280;19.026;2022-08-14T09:48:44;97887.13;;;22.41;100.00
40920;BME280;26652;50.280;19.026;2022-08-14T09:51:07;97877.53;;;22.41;100.00
40920;BME280;26652;50.280;19.026;2022-08-14T09:53:43;97890.22;;;22.48;100.00
40920;BME280;26652;50.280;19.026;2022-08-14T09:56:07;97884.19;;;22.58;100.00
40920;BME280;26652;50.280;19.026;2022-08-14T09:58:46;97887.00;;;22.66;100.00
40920;BME280;26652;50.280;19.026;2022-08-14T10:01:19;97892.50;;;22.60;100.00
40920;BME280;26652;50.280;19.026;2022-08-14T10:03:53;97893.03;;;22.51;100.00
40920;BME280;26652;50.280;19.026;2022-08-14T10:06:20;97891.28;;;22.42;100.00
40920;BME280;26652;50.280;19.026;2022-08-14T10:08:47;97888.94;;;22.45;100.00
40920;BME280;26652;50.280;19.026;2022-08-14T10:11:20;97895.88;;;22.55;100.00
40920;BME280;26652;50.280;19.026;2022-08-14T10:13:45;97895.38;;;22.53;100.00
40920;BME280;26652;50.280;19.026;2022-08-14T10:16:04;97893.28;;;22.55;100.00
40920;BME280;26652;50.280;19.026;2022-08-14T10:18:26;97894.53;;;22.63;100.00
40920;BME280;26652;50.280;19.026;2022-08-14T10:21:00;97897.66;;;22.65;100.00
40920;BME280;26652;50.280;19.026;2022-08-14T10:23:43;97893.00;;;22.62;100.00
40920;BME280;26652;50.280;19.026;2022-08-14T10:26:07;97885.72;;;22.64;100.00
40920;BME280;26652;50.280;19.026;2022-08-14T10:28:40;97890.34;;;22.72;100.00
40920;BME280;26652;50.280;19.026;2022-08-14T10:31:00;97892.13;;;22.81;100.00
40920;BME280;26652;50.280;19.026;2022-08-14T10:33:31;97894.62;;;22.92;100.00
40920;BME280;26652;50.280;19.026;2022-08-14T10:35:54;97897.94;;;23.02;100.00
40920;BME280;26652;50.280;19.026;2022-08-14T10:38:34;97893.03;;;22.96;100.00
40920;BME280;26652;50.280;19.026;2022-08-14T10:40:54;97900.22;;;23.09;100.00
40920;BME280;26652;50.280;19.026;2022-08-14T10:43:25;97895.75;;;23.14;100.00
40920;BME280;26652;50.280;19.026;2022-08-14T10:45:53;97891.69;;;23.37;100.00
40920;BME280;26652;50.280;19.026;2022-08-14T10:48:14;97883.78;;;23.19;100.00
40920;BME280;26652;50.280;19.026;2022-08-14T10:50:49;97889.31;;;23.41;99.93
40920;BME280;26652;50.280;19.026;2022-08-14T10:53:03;97885.94;;;23.40;99.66
40920;BME280;26652;50.280;19.026;2022-08-14T10:55:18;97894.91;;;23.58;97.80
40920;BME280;26652;50.280;19.026;2022-08-14T10:57:53;97897.91;;;23.70;96.00
40920;BME280;26652;50.280;19.026;2022-08-14T11:00:17;97893.97;;;23.73;95.96
40920;BME280;26652;50.280;19.026;2022-08-14T11:02:39;97892.41;;;23.72;94.49
40920;BME280;26652;50.280;19.026;2022-08-14T11:05:16;97896.06;;;23.71;92.95
40920;BME280;26652;50.280;19.026;2022-08-14T11:07:59;97899.00;;;23.64;94.45
40920;BME280;26652;50.280;19.026;2022-08-14T11:10:21;97894.66;;;23.55;94.09
40920;BME280;26652;50.280;19.026;2022-08-14T11:12:51;97894.31;;;23.32;94.43
40920;BME280;26652;50.280;19.026;2022-08-14T11:15:11;97889.75;;;23.48;93.89
40920;BME280;26652;50.280;19.026;2022-08-14T11:17:39;97890.47;;;23.59;94.51
40920;BME280;26652;50.280;19.026;2022-08-14T11:19:57;97891.66;;;23.71;92.02
40920;BME280;26652;50.280;19.026;2022-08-14T11:22:16;97897.69;;;23.91;92.92
40920;BME280;26652;50.280;19.026;2022-08-14T11:24:38;97892.94;;;23.93;91.16
40920;BME280;26652;50.280;19.026;2022-08-14T11:26:58;97892.34;;;24.01;92.15
40920;BME280;26652;50.280;19.026;2022-08-14T11:29:09;97894.81;;;24.11;92.52
40920;BME280;26652;50.280;19.026;2022-08-14T11:31:25;97889.06;;;24.14;90.11
40920;BME280;26652;50.280;19.026;2022-08-14T11:33:51;97890.84;;;24.19;91.41
40920;BME280;26652;50.280;19.026;2022-08-14T11:36:24;97891.13;;;24.17;90.57
40920;BME280;26652;50.280;19.026;2022-08-14T11:38:46;97887.59;;;24.08;91.41
40920;BME280;26652;50.280;19.026;2022-08-14T11:41:09;97889.47;;;24.26;91.20
40920;BME280;26652;50.280;19.026;2022-08-14T11:43:43;97892.28;;;24.30;91.57
40920;BME280;26652;50.280;19.026;2022-08-14T11:46:03;97885.25;;;24.30;92.11
40920;BME280;26652;50.280;19.026;2022-08-14T11:48:45;97885.25;;;24.06;91.37
40920;BME280;26652;50.280;19.026;2022-08-14T11:51:13;97892.78;;;24.32;91.69
40920;BME280;26652;50.280;19.026;2022-08-14T11:53:51;97883.22;;;24.27;92.22
40920;BME280;26652;50.280;19.026;2022-08-14T11:56:02;97879.38;;;24.43;88.18
40920;BME280;26652;50.280;19.026;2022-08-14T11:58:23;97881.69;;;24.45;84.72
40920;BME280;26652;50.280;19.026;2022-08-14T12:00:51;97882.97;;;24.24;87.71
40920;BME280;26652;50.280;19.026;2022-08-14T12:03:15;97886.34;;;24.24;88.55
40920;BME280;26652;50.280;19.026;2022-08-14T12:05:37;97882.87;;;24.34;89.83
40920;BME280;26652;50.280;19.026;2022-08-14T12:08:01;97876.75;;;24.43;91.02
40920;BME280;26652;50.280;19.026;2022-08-14T12:10:23;97880.34;;;24.29;86.62
40920;BME280;26652;50.280;19.026;2022-08-14T12:12:52;97879.94;;;24.17;87.04
40920;BME280;26652;50.280;19.026;2022-08-14T12:15:31;97881.87;;;24.06;86.14
40920;BME280;26652;50.280;19.026;2022-08-14T12:17:51;97864.19;;;24.08;88.33
40920;BME280;26652;50.280;19.026;2022-08-14T12:22:35;97879.78;;;24.51;84.79
40920;BME280;26652;50.280;19.026;2022-08-14T12:25:01;97874.87;;;24.68;84.81
40920;BME280;26652;50.280;19.026;2022-08-14T12:27:20;97875.69;;;24.82;85.76
40920;BME280;26652;50.280;19.026;2022-08-14T12:29:55;97872.31;;;24.82;82.73
40920;BME280;26652;50.280;19.026;2022-08-14T12:32:07;97882.03;;;24.76;81.49
40920;BME280;26652;50.280;19.026;2022-08-14T12:34:19;97865.41;;;24.91;82.65
40920;BME280;26652;50.280;19.026;2022-08-14T12:36:42;97862.38;;;25.02;84.63
40920;BME280;26652;50.280;19.026;2022-08-14T12:39:19;97867.09;;;25.00;82.53
40920;BME280;26652;50.280;19.026;2022-08-14T12:41:54;97872.06;;;25.16;81.32